Aérodrome :
LOGIN :

S'inscrire | Disclaimer

   EN    FR    IT 

 










Légende :    VFR   VFR Marginal   IFR   IFR Intensif   IFR Très Intensif
Visi : 
Plafond : 
>= 8 km
>= 3000ft
5 à 8 km
1000 à 3000 ft
1500m à 5 km
500 à 1000 ft
800 à 1500m
200 à 500 ft
< 800m
< 200 ft
Symboles :   Orages  Brouillard  Fortes neiges  Fortes précipitations  Vent > 20 kt
SIGMETs :   Divers  Orages  Givrage  Turbulence  Onde Orograph.  Cendres Volcan.






- Altitude de l'aérodrome : 3368 ft


LSGC - Les Eplatures

DERNIER METAR :
  • 170550Z AUTO 24009KT 2100 -SN SCT007 SCT009 BKN013 M02/M02 Q1015

METARs EXPIRÉS :
  • 170520Z AUTO 24009KT 1800 -SN SCT005 OVC007 OVC009 M02/M02 Q1015
  • 170450Z AUTO 24008KT 4200 -SN OVC005 M02/M02 Q1015
  • 170420Z AUTO 24009KT 1900 -SN BKN009 M02/M02 Q1015
  • 170350Z AUTO 23009KT 5000 -SN BKN006 M02/M02 Q1015
  • 170320Z AUTO 23008KT 180V250 1700 -SN BKN005 BKN007 BKN009 M02/M02 Q1015

TAF TAF LSGC
Valide du 17 à 06h jusqu'au 17 à 15h UTC


170525Z 1706/1715 24010KT 1800 -SN BKN009



MET'MAP, la Météo Aéronautique d'un coup d'oeil ! - Copyright ORBIFLY Décembre 2007 - Disclaimer

ORBIFLY MET'MAP TEAM :

Programmation & Développement : Alexandra Zaïnal
Sur une idée originale de : Baudouin d'Aumeries
Assistance à la programmation : Marc-Olivier Méhu
Soutien technique & logistique : Manuel Goepfert

Contact : metmap@orbifly.com




SOURCES & CREDITS :

   NOAA